Time;durP1;ratioP1;P1;durP2;ratioP2;P2;SDS_P1;SDS_P2;PMS_P1;PMS_P2;Temp;Humidity;BMP_temperature;BMP_pressure;BME280_temperature;BME280_humidity;BME280_pressure;Samples;Min_cycle;Max_cycle;Signal;HPM_P1;HPM_P2
2020/12/14 00:01:42;;;;;;;17.27;9.67;;;;;;;7.00;72.26;94070.75;5012391;28;20685;-75
2020/12/14 00:04:08;;;;;;;21.63;11.17;;;;;;;6.86;73.06;94068.53;5011856;28;20169;-75
2020/12/14 00:06:33;;;;;;;19.40;11.60;;;;;;;6.77;73.00;94067.91;5012006;28;20177;-74
2020/12/14 00:08:59;;;;;;;18.27;10.67;;;;;;;6.91;72.73;94060.31;5011684;28;20197;-74
2020/12/14 00:11:34;;;;;;;17.43;9.53;;;;;;;6.81;73.49;94066.91;5012246;28;20208;-74
2020/12/14 00:13:59;;;;;;;19.77;11.40;;;;;;;6.79;73.24;94066.47;5011964;28;20172;-74
2020/12/14 00:16:25;;;;;;;16.87;10.30;;;;;;;6.80;72.80;94073.31;5011862;28;21200;-74
2020/12/14 00:18:50;;;;;;;17.43;11.27;;;;;;;6.99;72.64;94087.81;5011900;28;20173;-75
2020/12/14 00:21:18;;;;;;;21.33;10.23;;;;;;;7.03;72.11;94086.78;5011483;28;20262;-74
2020/12/14 00:23:47;;;;;;;21.43;10.93;;;;;;;7.08;71.32;94086.53;5011815;28;20695;-74
2020/12/14 00:26:13;;;;;;;17.87;9.87;;;;;;;6.81;71.86;94097.97;5011241;28;20634;-73
2020/12/14 00:28:39;;;;;;;23.93;10.50;;;;;;;6.96;71.66;94101.75;5011669;28;20584;-74
2020/12/14 00:31:04;;;;;;;19.10;10.57;;;;;;;6.85;72.37;94085.56;5011729;28;21262;-74
2020/12/14 00:33:30;;;;;;;20.80;11.93;;;;;;;6.80;72.15;94083.16;5011620;28;20621;-73
2020/12/14 00:35:55;;;;;;;17.97;10.63;;;;;;;6.89;72.52;94084.53;5011220;28;20173;-73
2020/12/14 00:38:21;;;;;;;18.20;10.37;;;;;;;6.69;73.26;94090.06;5010615;28;20610;-73
2020/12/14 00:40:46;;;;;;;20.37;11.30;;;;;;;6.89;72.37;94097.81;5011266;28;20251;-73
2020/12/14 00:43:12;;;;;;;20.47;11.17;;;;;;;6.79;72.76;94085.06;5010563;28;20192;-74
2020/12/14 00:45:37;;;;;;;22.10;10.93;;;;;;;6.68;72.59;94096.47;5011727;28;20259;-74
2020/12/14 00:48:03;;;;;;;18.80;10.30;;;;;;;6.70;73.68;94103.00;5011464;28;20211;-73
2020/12/14 00:50:28;;;;;;;19.47;10.70;;;;;;;6.69;73.49;94104.09;5011423;28;20180;-74
2020/12/14 00:52:54;;;;;;;23.83;10.67;;;;;;;6.69;72.99;94106.00;5011172;28;20198;-73
2020/12/14 00:55:19;;;;;;;16.60;10.50;;;;;;;6.56;73.27;94111.31;5011637;28;20231;-75
2020/12/14 00:57:45;;;;;;;20.07;11.13;;;;;;;6.66;73.43;94101.34;5011363;28;20173;-75
2020/12/14 01:00:10;;;;;;;19.97;11.10;;;;;;;6.48;73.78;94112.25;5011567;28;20201;-75
2020/12/14 01:02:36;;;;;;;20.23;10.63;;;;;;;6.69;73.25;94113.94;5011207;28;20264;-74
2020/12/14 01:05:01;;;;;;;17.37;10.60;;;;;;;6.62;73.06;94106.56;5011710;28;20251;-74
2020/12/14 01:07:27;;;;;;;21.10;10.90;;;;;;;6.66;73.23;94114.63;5011169;28;20267;-74
2020/12/14 01:09:52;;;;;;;18.70;10.97;;;;;;;6.65;73.45;94126.34;5011219;28;20667;-74
2020/12/14 01:12:18;;;;;;;14.43;8.90;;;;;;;6.74;71.75;94114.47;5011310;28;20184;-74
2020/12/14 01:14:43;;;;;;;17.33;9.70;;;;;;;6.47;72.57;94123.97;5011063;28;20239;-74
2020/12/14 01:17:10;;;;;;;16.77;9.07;;;;;;;6.48;73.30;94132.69;5011305;28;20249;-75
2020/12/14 01:19:35;;;;;;;16.87;9.63;;;;;;;6.59;72.94;94131.88;5012050;28;20212;-74
2020/12/14 01:22:01;;;;;;;16.40;9.83;;;;;;;6.67;73.57;94127.53;5014711;28;21156;-74
2020/12/14 01:24:26;;;;;;;17.83;9.83;;;;;;;6.66;72.81;94139.25;5014526;28;20173;-74
2020/12/14 01:26:52;;;;;;;15.30;9.13;;;;;;;6.51;73.02;94140.78;5014701;28;20223;-75
2020/12/14 01:29:17;;;;;;;16.33;9.17;;;;;;;6.56;72.98;94140.50;5014596;28;20301;-74
2020/12/14 01:31:43;;;;;;;16.57;9.80;;;;;;;6.52;72.88;94142.31;5015114;28;20188;-75
2020/12/14 01:34:08;;;;;;;15.00;9.27;;;;;;;6.69;72.59;94146.56;5014702;28;20255;-74
2020/12/14 01:36:34;;;;;;;13.90;8.77;;;;;;;6.68;73.06;94146.88;5014581;28;20173;-74
2020/12/14 01:38:59;;;;;;;15.97;8.73;;;;;;;6.70;72.65;94147.31;5014329;28;20193;-75
2020/12/14 01:41:25;;;;;;;16.43;8.67;;;;;;;6.74;71.90;94146.31;5014442;28;20217;-75
2020/12/14 01:43:51;;;;;;;16.67;9.47;;;;;;;6.81;72.08;94151.03;5014579;28;20594;-75
2020/12/14 01:46:27;;;;;;;16.90;9.33;;;;;;;6.83;71.65;94156.78;5014358;28;20300;-74
2020/12/14 01:48:52;;;;;;;17.30;8.67;;;;;;;6.76;71.74;94144.09;5013543;28;20179;-74
2020/12/14 01:51:18;;;;;;;13.53;8.33;;;;;;;6.55;71.84;94146.91;5013060;28;20584;-74
2020/12/14 01:53:43;;;;;;;15.50;8.07;;;;;;;6.41;73.14;94148.41;4996951;28;20717;-73
2020/12/14 01:56:09;;;;;;;15.37;8.30;;;;;;;6.42;72.74;94142.00;5013088;28;20184;-73
2020/12/14 01:58:34;;;;;;;15.37;9.10;;;;;;;6.55;72.39;94144.28;5012995;28;20196;-75
2020/12/14 02:01:02;;;;;;;15.43;8.63;;;;;;;6.40;72.84;94152.97;5012923;28;20212;-75
2020/12/14 02:03:28;;;;;;;16.70;9.63;;;;;;;6.50;72.27;94151.69;5013995;28;20174;-74
2020/12/14 02:05:54;;;;;;;15.03;8.27;;;;;;;6.58;71.95;94153.44;5014116;28;20618;-74
2020/12/14 02:08:19;;;;;;;19.00;9.83;;;;;;;6.67;72.03;94159.38;5013971;28;20574;-74
2020/12/14 02:10:45;;;;;;;15.87;8.87;;;;;;;6.56;71.82;94158.31;5014142;28;20627;-74
2020/12/14 02:13:10;;;;;;;15.77;7.77;;;;;;;6.74;71.67;94153.50;5013766;28;20177;-75
2020/12/14 02:15:36;;;;;;;14.83;8.57;;;;;;;6.67;71.94;94158.59;5014080;28;20169;-74
2020/12/14 02:18:01;;;;;;;14.00;8.30;;;;;;;6.65;71.62;94156.28;5013998;28;20690;-73
2020/12/14 02:20:27;;;;;;;18.57;9.43;;;;;;;6.57;71.38;94139.41;5013945;28;20228;-74
2020/12/14 02:22:52;;;;;;;14.37;8.43;;;;;;;6.55;71.79;94159.41;5013472;28;20200;-74
2020/12/14 02:25:18;;;;;;;19.03;10.00;;;;;;;6.44;72.23;94150.38;5014257;28;20208;-74
2020/12/14 02:27:44;;;;;;;19.87;9.33;;;;;;;6.41;72.23;94143.13;5013775;28;20719;-74
2020/12/14 02:30:10;;;;;;;15.87;8.60;;;;;;;6.57;72.34;94149.25;5013360;28;20179;-74
2020/12/14 02:32:35;;;;;;;13.70;8.27;;;;;;;6.58;71.22;94148.16;5012425;28;21247;-74
2020/12/14 02:35:01;;;;;;;16.30;9.03;;;;;;;6.45;72.51;94152.69;5012076;28;20678;-74
2020/12/14 02:37:28;;;;;;;16.03;8.47;;;;;;;6.44;72.10;94156.47;5013376;28;20263;-74
2020/12/14 02:39:54;;;;;;;19.83;9.23;;;;;;;6.33;73.03;94150.84;5011884;28;20219;-74
2020/12/14 02:42:20;;;;;;;17.10;8.83;;;;;;;6.42;71.88;94145.44;5013555;28;20697;-74
2020/12/14 02:44:46;;;;;;;15.43;9.10;;;;;;;6.38;72.36;94159.69;5012910;28;20177;-74
2020/12/14 02:47:11;;;;;;;14.00;8.03;;;;;;;6.27;72.74;94141.59;5013474;28;20590;-73
2020/12/14 02:49:37;;;;;;;16.80;9.00;;;;;;;6.35;72.07;94155.84;5011828;28;20173;-74
2020/12/14 02:52:04;;;;;;;18.20;9.80;;;;;;;6.20;73.18;94146.69;5013440;28;20261;-74
2020/12/14 02:54:29;;;;;;;16.23;8.00;;;;;;;6.27;71.97;94151.41;5013148;28;20561;-74
2020/12/14 02:56:55;;;;;;;16.83;8.47;;;;;;;6.21;72.67;94155.41;5012901;28;20586;-74
2020/12/14 02:59:20;;;;;;;17.73;8.80;;;;;;;6.17;72.73;94154.53;5012867;28;20276;-72
2020/12/14 03:01:49;;;;;;;15.00;8.07;;;;;;;6.35;72.45;94153.97;5013045;28;20169;-73
2020/12/14 03:04:15;;;;;;;15.17;8.97;;;;;;;6.50;71.68;94157.00;5012434;28;20278;-74
2020/12/14 03:06:43;;;;;;;16.13;8.43;;;;;;;6.50;71.68;94155.13;5012566;28;20591;-72
2020/12/14 03:09:08;;;;;;;14.23;8.57;;;;;;;6.28;71.90;94152.97;5012618;28;20639;-71
2020/12/14 03:11:34;;;;;;;18.07;9.63;;;;;;;6.34;72.15;94159.56;5012457;28;20681;-73
2020/12/14 03:13:59;;;;;;;14.20;8.70;;;;;;;6.42;72.74;94164.00;5012638;28;20640;-73
2020/12/14 03:16:25;;;;;;;13.60;8.20;;;;;;;6.33;72.06;94150.84;5012620;28;20211;-72
2020/12/14 03:18:50;;;;;;;15.50;9.00;;;;;;;6.37;72.03;94156.25;5010961;28;20656;-72
2020/12/14 03:21:16;;;;;;;15.43;8.07;;;;;;;6.17;72.02;94154.53;5012098;28;20232;-73
2020/12/14 03:23:41;;;;;;;16.27;8.93;;;;;;;6.29;72.13;94154.53;5012184;28;20243;-71
2020/12/14 03:26:07;;;;;;;17.13;9.33;;;;;;;6.15;72.60;94154.09;5011807;28;20236;-73
2020/12/14 03:28:32;;;;;;;14.13;8.50;;;;;;;6.09;72.73;94141.06;5011658;28;20640;-74
2020/12/14 03:30:58;;;;;;;14.63;8.00;;;;;;;6.06;72.29;94146.25;5012670;28;20181;-73
2020/12/14 03:33:23;;;;;;;15.23;8.73;;;;;;;6.09;73.09;94143.72;5012289;28;20200;-71
2020/12/14 03:35:49;;;;;;;16.23;9.07;;;;;;;6.11;72.57;94132.78;5012861;28;20208;-74
2020/12/14 03:38:15;;;;;;;19.80;9.23;;;;;;;6.12;72.65;94158.22;5012179;28;20208;-72
2020/12/14 03:40:41;;;;;;;14.57;8.90;;;;;;;6.22;73.17;94152.41;5010833;28;20358;-74
2020/12/14 03:43:07;;;;;;;17.10;9.53;;;;;;;6.11;73.20;94148.69;5012033;28;20203;-73
2020/12/14 03:45:32;;;;;;;17.80;9.50;;;;;;;6.00;72.97;94150.25;5011785;28;20955;-74
2020/12/14 03:47:58;;;;;;;16.93;8.80;;;;;;;6.03;72.77;94150.38;5012681;28;20209;-72
2020/12/14 03:50:23;;;;;;;15.23;8.93;;;;;;;6.01;74.14;94143.88;5011998;28;20324;-73
2020/12/14 03:52:49;;;;;;;15.43;8.70;;;;;;;5.90;73.19;94140.88;5011988;28;20200;-73
2020/12/14 03:55:14;;;;;;;15.47;9.03;;;;;;;5.64;74.04;94135.91;5011749;28;20172;-75
2020/12/14 03:57:40;;;;;;;15.80;8.93;;;;;;;5.81;73.61;94156.88;5011928;28;20274;-74
2020/12/14 04:00:05;;;;;;;16.33;8.60;;;;;;;5.84;73.24;94166.03;5011793;28;20263;-73
2020/12/14 04:02:31;;;;;;;14.40;8.30;;;;;;;5.82;73.35;94163.69;5011986;28;20664;-75
2020/12/14 04:04:56;;;;;;;13.37;7.70;;;;;;;5.95;72.58;94169.81;5011850;28;20646;-74
2020/12/14 04:07:22;;;;;;;14.27;8.27;;;;;;;5.74;73.28;94166.47;5011902;28;20204;-73
2020/12/14 04:09:47;;;;;;;15.53;8.53;;;;;;;5.78;73.69;94177.94;5011887;28;20762;-73
2020/12/14 04:12:13;;;;;;;13.97;8.00;;;;;;;5.57;73.38;94176.19;5011552;28;20616;-74
2020/12/14 04:14:39;;;;;;;16.40;8.43;;;;;;;5.75;73.77;94179.38;5011966;28;20181;-74
2020/12/14 04:17:04;;;;;;;13.73;8.87;;;;;;;5.74;74.10;94182.38;5011562;28;20711;-74
2020/12/14 04:19:30;;;;;;;14.47;7.67;;;;;;;5.82;73.40;94178.84;5010603;28;20683;-74
2020/12/14 04:21:59;;;;;;;10.63;7.43;;;;;;;5.81;72.80;94187.88;5011755;28;20196;-73
2020/12/14 04:24:25;;;;;;;15.10;8.50;;;;;;;5.64;73.31;94190.75;5011749;28;20173;-74
2020/12/14 04:26:53;;;;;;;15.17;7.23;;;;;;;5.67;72.61;94195.38;5011352;28;20762;-74
2020/12/14 04:29:20;;;;;;;13.10;8.47;;;;;;;5.60;73.75;94193.28;5011685;28;20181;-74
2020/12/14 04:31:45;;;;;;;15.63;7.97;;;;;;;5.74;73.28;94182.38;5011633;28;20646;-73
2020/12/14 04:34:11;;;;;;;13.10;7.57;;;;;;;5.81;72.94;94188.66;5011725;28;20587;-75
2020/12/14 04:36:36;;;;;;;14.03;8.07;;;;;;;5.95;72.95;94193.66;5010706;28;20201;-74
2020/12/14 04:39:03;;;;;;;14.20;7.47;;;;;;;5.88;73.06;94198.69;5011422;28;20216;-74
2020/12/14 04:41:29;;;;;;;14.23;7.47;;;;;;;6.10;71.90;94195.63;5011508;28;20315;-72
2020/12/14 04:43:54;;;;;;;14.87;7.30;;;;;;;6.13;72.24;94209.34;5011272;28;20623;-74
2020/12/14 04:46:20;;;;;;;13.10;7.30;;;;;;;6.14;71.61;94193.09;5010503;28;20600;-74
2020/12/14 04:48:45;;;;;;;12.20;7.43;;;;;;;6.19;71.33;94208.78;5010242;28;20208;-75
2020/12/14 04:51:11;;;;;;;12.00;7.20;;;;;;;6.04;71.82;94218.16;5010404;28;20185;-74
2020/12/14 04:53:38;;;;;;;16.47;8.60;;;;;;;6.17;72.12;94213.63;5011626;28;20173;-74
2020/12/14 04:56:04;;;;;;;14.40;8.17;;;;;;;6.29;70.52;94218.16;5013770;28;20185;-73
2020/12/14 04:58:30;;;;;;;11.37;7.07;;;;;;;6.16;71.70;94221.91;5014882;28;20932;-74
2020/12/14 05:00:55;;;;;;;12.03;8.17;;;;;;;6.10;72.03;94219.47;5015233;28;20269;-74
2020/12/14 05:03:21;;;;;;;15.43;7.73;;;;;;;6.16;72.27;94230.63;5015227;28;20173;-73
2020/12/14 05:05:56;;;;;;;12.23;7.73;;;;;;;6.20;71.65;94233.41;5015057;28;20563;-74
2020/12/14 05:08:25;;;;;;;12.30;6.67;;;;;;;6.08;71.91;94228.88;5013983;28;20238;-74
2020/12/14 05:10:51;;;;;;;12.77;7.37;;;;;;;6.09;72.19;94241.78;5014990;28;20948;-74
2020/12/14 05:13:16;;;;;;;15.20;7.53;;;;;;;6.06;71.89;94244.31;5015022;28;20567;-74
2020/12/14 05:15:42;;;;;;;14.23;7.60;;;;;;;6.21;71.12;94246.31;5014688;28;20205;-74
2020/12/14 05:18:08;;;;;;;12.23;7.27;;;;;;;6.05;71.21;94254.16;5014963;28;20173;-74
2020/12/14 05:20:34;;;;;;;12.33;7.33;;;;;;;6.12;71.46;94255.47;5014729;28;20659;-79
2020/12/14 05:23:01;;;;;;;14.63;7.27;;;;;;;6.16;71.99;94264.31;5013926;28;20603;-71
2020/12/14 05:25:27;;;;;;;12.73;7.13;;;;;;;6.03;71.64;94261.69;5014886;28;20180;-72
2020/12/14 05:28:14;;;;;;;13.03;7.57;;;;;;;6.09;71.12;94265.66;5007390;28;20635;-74
2020/12/14 05:30:44;;;;;;;10.63;6.60;;;;;;;6.17;70.85;94276.47;5014318;28;20603;-74
2020/12/14 05:33:20;;;;;;;12.33;7.67;;;;;;;6.18;70.89;94270.84;5014677;28;20627;-73
2020/12/14 05:35:46;;;;;;;11.20;7.30;;;;;;;6.21;71.20;94272.84;5014396;28;20587;-74
2020/12/14 05:38:12;;;;;;;11.50;7.07;;;;;;;6.19;71.27;94283.00;5014906;28;21007;-74
2020/12/14 05:40:38;;;;;;;11.90;7.07;;;;;;;6.15;71.61;94276.03;5014152;28;20250;-75
2020/12/14 05:43:10;;;;;;;13.50;7.53;;;;;;;6.22;71.07;94284.97;5014366;28;20603;-74
2020/12/14 05:45:36;;;;;;;11.60;7.33;;;;;;;6.17;71.83;94276.47;5014313;28;20558;-73
2020/12/14 05:48:01;;;;;;;15.43;7.33;;;;;;;6.15;71.43;94279.47;5014333;28;20599;-73
2020/12/14 05:50:27;;;;;;;14.20;8.10;;;;;;;6.32;70.38;94278.47;5014074;28;20169;-74
2020/12/14 05:52:52;;;;;;;11.73;6.83;;;;;;;6.22;71.21;94277.03;5014178;28;20173;-73
2020/12/14 05:55:21;;;;;;;14.27;7.90;;;;;;;6.11;70.80;94286.53;4996716;28;20181;-74
2020/12/14 05:57:50;;;;;;;12.67;7.77;;;;;;;6.06;71.15;94299.97;4997149;28;20169;-74
2020/12/14 06:00:16;;;;;;;13.30;7.23;;;;;;;6.08;71.30;94290.63;5014246;28;20650;-75
2020/12/14 06:02:42;;;;;;;17.77;8.20;;;;;;;5.97;70.88;94286.06;5013791;28;20583;-74
2020/12/14 06:05:08;;;;;;;12.27;6.50;;;;;;;6.16;71.17;94304.09;5013676;28;20611;-74
2020/12/14 06:07:34;;;;;;;13.93;7.87;;;;;;;5.99;71.31;94299.75;5013739;28;20652;-73
2020/12/14 06:10:09;;;;;;;19.73;7.20;;;;;;;6.07;71.76;94306.84;5013931;28;20186;-73
2020/12/14 06:12:37;;;;;;;16.17;8.97;;;;;;;6.17;71.49;94311.69;5013708;28;20670;-74
2020/12/14 06:15:12;;;;;;;11.50;7.17;;;;;;;5.93;71.94;94309.03;5013751;28;20568;-74
2020/12/14 06:17:38;;;;;;;10.13;6.60;;;;;;;5.96;71.76;94311.81;5013913;28;20579;-75
2020/12/14 06:20:05;;;;;;;18.10;7.20;;;;;;;5.96;70.78;94317.09;5013837;28;20631;-74
2020/12/14 06:22:31;;;;;;;13.27;7.83;;;;;;;6.01;71.27;94316.13;5013380;28;20691;-74
2020/12/14 06:25:00;;;;;;;16.70;7.97;;;;;;;6.08;70.67;94329.59;4996155;28;20579;-74
2020/12/14 06:27:27;;;;;;;14.73;7.17;;;;;;;5.91;71.62;94329.75;5012128;28;20299;-73
2020/12/14 06:29:53;;;;;;;12.13;7.27;;;;;;;5.98;71.14;94330.78;5013482;28;21268;-73
2020/12/14 06:32:51;;;;;;;13.00;7.47;;;;;;;6.08;70.82;94327.72;5013483;28;20634;-75
2020/12/14 06:35:16;;;;;;;15.43;7.93;;;;;;;6.06;71.01;94339.75;4956442;28;20191;-73
2020/12/14 06:37:55;;;;;;;13.43;8.13;;;;;;;6.18;71.37;94339.00;4972101;28;20598;-74
2020/12/14 06:40:20;;;;;;;13.90;8.43;;;;;;;6.10;71.45;94340.63;4972235;28;20205;-74
2020/12/14 06:42:49;;;;;;;14.60;7.73;;;;;;;6.19;71.37;94351.16;4971624;28;20713;-74
2020/12/14 06:45:15;;;;;;;14.47;7.33;;;;;;;6.13;70.75;94352.47;4972078;28;20190;-73
2020/12/14 06:47:45;;;;;;;15.87;6.80;;;;;;;5.97;71.00;94349.69;4955750;28;20606;-74
2020/12/14 06:50:26;;;;;;;18.00;8.53;;;;;;;6.15;70.88;94358.22;4972014;28;20613;-74
2020/12/14 06:52:51;;;;;;;13.77;8.50;;;;;;;6.17;70.83;94356.75;4971666;28;20609;-74
2020/12/14 06:55:42;;;;;;;14.83;8.30;;;;;;;6.09;71.51;94369.03;4972028;28;20632;-73
2020/12/14 06:58:29;;;;;;;12.73;7.97;;;;;;;5.92;71.37;94358.59;4971745;28;20272;-73
2020/12/14 07:00:55;;;;;;;12.27;7.10;;;;;;;6.13;70.67;94365.72;4971137;28;20700;-73
2020/12/14 07:03:36;;;;;;;15.47;8.10;;;;;;;6.15;71.45;94374.88;4971900;28;20600;-72
2020/12/14 07:06:05;;;;;;;14.20;7.90;;;;;;;6.24;71.05;94377.47;4971685;28;20640;-75
2020/12/14 07:08:39;;;;;;;17.23;7.87;;;;;;;6.38;69.98;94377.91;4971788;28;21329;-73
2020/12/14 07:11:24;;;;;;;13.20;7.53;;;;;;;6.17;71.40;94382.50;4995801;28;20710;-73
2020/12/14 07:13:51;;;;;;;18.40;7.87;;;;;;;6.16;71.30;94386.25;5011632;28;21050;-74
2020/12/14 07:16:17;;;;;;;16.57;8.63;;;;;;;6.14;70.84;94385.81;5011327;28;20574;-71
2020/12/14 07:18:44;;;;;;;11.90;7.63;;;;;;;6.18;71.22;94387.50;5012052;28;20962;-73
2020/12/14 07:21:10;;;;;;;15.00;7.70;;;;;;;6.20;71.21;94387.16;5012110;28;20635;-72
2020/12/14 07:23:36;;;;;;;15.23;7.03;;;;;;;6.16;70.60;94380.97;5012592;28;20575;-72
2020/12/14 07:26:03;;;;;;;11.17;6.83;;;;;;;6.10;71.04;94383.06;5012223;28;20243;-72
2020/12/14 07:28:38;;;;;;;12.77;7.40;;;;;;;5.79;71.54;94383.50;5012534;28;20682;-72
2020/12/14 07:31:06;;;;;;;13.70;7.97;;;;;;;5.80;72.13;94387.69;5012123;28;20598;-71
2020/12/14 07:33:32;;;;;;;18.57;7.23;;;;;;;6.02;72.29;94395.28;5012356;28;20989;-73
2020/12/14 07:36:15;;;;;;;16.40;7.13;;;;;;;6.05;71.70;94397.28;5012045;28;20638;-74
2020/12/14 07:38:57;;;;;;;14.27;8.17;;;;;;;6.07;72.08;94405.69;5012692;28;20173;-74
2020/12/14 07:41:23;;;;;;;12.43;7.33;;;;;;;5.84;72.27;94399.19;5012093;28;21076;-74
2020/12/14 07:43:50;;;;;;;11.73;7.90;;;;;;;5.70;72.96;94404.00;5012073;28;20590;-74
2020/12/14 07:46:20;;;;;;;16.63;8.30;;;;;;;5.63;73.55;94409.03;5011883;28;20563;-74
2020/12/14 07:48:59;;;;;;;14.13;7.43;;;;;;;5.63;73.93;94417.00;5012291;28;20588;-75
2020/12/14 07:51:26;;;;;;;13.13;8.80;;;;;;;5.65;73.08;94414.78;5011935;28;20658;-75
2020/12/14 07:53:52;;;;;;;16.03;8.43;;;;;;;5.55;74.45;94408.78;5012309;28;21001;-75
2020/12/14 07:56:18;;;;;;;16.50;9.17;;;;;;;5.54;74.05;94419.69;5011871;28;20680;-73
2020/12/14 07:58:47;;;;;;;17.53;8.10;;;;;;;5.44;75.02;94417.44;5011995;28;21212;-74
2020/12/14 08:01:17;;;;;;;18.17;8.70;;;;;;;5.32;75.31;94421.56;5011632;28;20627;-73
2020/12/14 08:03:43;;;;;;;16.77;8.50;;;;;;;5.64;75.55;94421.94;5012127;28;21165;-74
2020/12/14 08:06:15;;;;;;;14.57;8.17;;;;;;;5.87;75.50;94432.19;5011663;28;20588;-74
2020/12/14 08:08:42;;;;;;;15.67;8.40;;;;;;;5.73;75.87;94421.91;5012017;28;20580;-74
2020/12/14 08:11:08;;;;;;;17.27;8.20;;;;;;;5.95;74.99;94424.22;4994319;28;20576;-73
2020/12/14 08:13:34;;;;;;;12.50;8.40;;;;;;;5.80;76.08;94436.16;5011664;28;20591;-73
2020/12/14 08:16:03;;;;;;;19.67;9.10;;;;;;;5.79;75.02;94436.50;5010079;28;20618;-72
2020/12/14 08:18:29;;;;;;;15.83;9.03;;;;;;;5.93;75.21;94433.56;5011977;28;20181;-74
2020/12/14 08:20:56;;;;;;;16.00;7.43;;;;;;;5.68;75.33;94433.47;5010584;28;20635;-74
2020/12/14 08:23:23;;;;;;;21.07;9.43;;;;;;;5.91;76.26;94438.41;5011768;28;20226;-72
2020/12/14 08:25:49;;;;;;;19.87;9.03;;;;;;;5.80;74.98;94441.44;5011564;28;20675;-72
2020/12/14 08:28:15;;;;;;;15.43;8.57;;;;;;;5.79;75.46;94441.78;5011896;28;20616;-75
2020/12/14 08:30:40;;;;;;;14.80;8.00;;;;;;;5.69;74.23;94444.81;5015694;28;20969;-73
2020/12/14 08:33:13;;;;;;;13.03;8.40;;;;;;;5.60;75.51;94442.22;5015568;28;20243;-74
2020/12/14 08:35:39;;;;;;;14.23;8.33;;;;;;;5.64;75.08;94442.38;5015821;28;20208;-74
2020/12/14 08:38:07;;;;;;;15.90;7.73;;;;;;;5.54;75.76;94439.00;5015339;28;20623;-73
2020/12/14 08:40:32;;;;;;;10.73;7.53;;;;;;;5.52;74.88;94446.50;5015480;28;20642;-73
2020/12/14 08:43:11;;;;;;;13.73;7.53;;;;;;;5.68;76.39;94448.59;5015302;28;21042;-72
2020/12/14 08:45:57;;;;;;;17.03;9.97;;;;;;;5.65;76.10;94438.63;5015486;28;20212;-71
2020/12/14 08:48:23;;;;;;;19.33;9.60;;;;;;;5.78;77.31;94443.66;5015161;28;20583;-73
2020/12/14 08:50:48;;;;;;;12.80;7.90;;;;;;;6.03;77.21;94444.56;5015463;28;20587;-73
2020/12/14 08:53:22;;;;;;;15.77;8.90;;;;;;;6.08;77.36;94449.66;5013974;28;20589;-73
2020/12/14 08:55:48;;;;;;;15.73;8.00;;;;;;;6.01;75.49;94444.09;5015099;28;20280;-73
2020/12/14 08:58:13;;;;;;;13.57;8.40;;;;;;;5.89;76.24;94440.59;5014974;28;21056;-72
2020/12/14 09:00:39;;;;;;;14.20;8.80;;;;;;;6.02;76.45;94445.66;5015076;28;20259;-73
2020/12/14 09:03:04;;;;;;;17.03;8.50;;;;;;;5.91;75.45;94431.25;5015168;28;20197;-73
2020/12/14 09:05:34;;;;;;;19.30;9.63;;;;;;;5.86;76.94;94442.03;5015119;28;20270;-72
2020/12/14 09:08:13;;;;;;;16.83;8.40;;;;;;;6.05;75.77;94439.69;5014759;28;20252;-73
2020/12/14 09:10:38;;;;;;;13.10;8.43;;;;;;;5.96;77.10;94435.59;5014849;28;21184;-73
2020/12/14 09:13:04;;;;;;;15.93;8.43;;;;;;;6.00;75.67;94428.50;5014624;28;20687;-74
2020/12/14 09:15:31;;;;;;;13.33;8.40;;;;;;;6.00;75.26;94431.16;5014785;28;20648;-73
2020/12/14 09:18:05;;;;;;;14.30;8.00;;;;;;;6.15;75.96;94438.50;5014660;28;20188;-74
2020/12/14 09:20:32;;;;;;;15.07;8.47;;;;;;;6.12;75.24;94433.88;5014788;28;20638;-71
2020/12/14 09:22:57;;;;;;;16.00;8.37;;;;;;;5.95;76.24;94429.53;5014335;28;21010;-72
2020/12/14 09:25:23;;;;;;;13.80;8.17;;;;;;;6.06;74.54;94437.81;5014550;28;20587;-71
2020/12/14 09:27:48;;;;;;;18.43;7.00;;;;;;;6.10;75.26;94434.19;5014446;28;20225;-73
2020/12/14 09:30:14;;;;;;;11.93;7.60;;;;;;;5.85;74.42;94440.50;5014262;28;20165;-73
2020/12/14 09:32:39;;;;;;;14.57;8.30;;;;;;;5.80;74.83;94433.50;5014533;28;20231;-73
2020/12/14 09:35:05;;;;;;;13.63;6.97;;;;;;;5.80;76.40;94433.50;5014492;28;20207;-74
2020/12/14 09:37:31;;;;;;;13.10;7.37;;;;;;;5.92;76.19;94432.81;5014535;28;20180;-74
2020/12/14 09:39:57;;;;;;;14.77;7.97;;;;;;;5.94;75.32;94421.88;5013375;28;20205;-73
2020/12/14 09:42:23;;;;;;;12.90;7.50;;;;;;;6.09;74.83;94435.28;5014253;28;20188;-73
2020/12/14 09:44:49;;;;;;;14.23;7.90;;;;;;;5.88;75.53;94423.91;5014289;28;20576;-78
2020/12/14 09:47:14;;;;;;;13.20;8.07;;;;;;;5.86;76.29;94431.44;5014384;28;20176;-77
2020/12/14 09:49:40;;;;;;;11.33;7.07;;;;;;;5.74;75.67;94434.03;5014133;28;20656;-74
2020/12/14 09:52:05;;;;;;;11.87;6.93;;;;;;;5.55;76.26;94434.47;5014148;28;20181;-71
2020/12/14 09:54:31;;;;;;;12.63;7.90;;;;;;;5.42;77.43;94420.41;5014146;28;20169;-73
2020/12/14 09:56:56;;;;;;;9.87;6.77;;;;;;;5.75;76.65;94432.94;5014173;28;20620;-72
2020/12/14 09:59:22;;;;;;;15.93;7.37;;;;;;;5.77;77.32;94423.53;5014039;28;20200;-73
2020/12/14 10:01:47;;;;;;;11.53;7.70;;;;;;;5.78;77.68;94422.47;5013693;28;20299;-73
2020/12/14 10:04:13;;;;;;;9.17;6.30;;;;;;;5.99;76.04;94421.66;5014401;28;20227;-73
2020/12/14 10:06:38;;;;;;;9.10;6.57;;;;;;;5.85;77.00;94421.94;5013607;28;20188;-71
2020/12/14 10:09:04;;;;;;;11.70;6.83;;;;;;;5.90;76.25;94429.69;5014039;28;20256;-72
2020/12/14 10:11:30;;;;;;;10.00;7.13;;;;;;;5.86;75.98;94430.66;5013619;28;20209;-73
2020/12/14 10:13:56;;;;;;;12.20;7.43;;;;;;;5.74;76.53;94426.09;5013662;28;20629;-72
2020/12/14 10:16:22;;;;;;;11.03;7.23;;;;;;;5.71;76.90;94419.56;5013552;28;20181;-73
2020/12/14 10:18:47;;;;;;;11.53;6.13;;;;;;;5.64;76.23;94421.19;5013462;28;20173;-73
2020/12/14 10:21:13;;;;;;;8.73;5.77;;;;;;;5.76;77.03;94418.59;5013792;28;20223;-72
2020/12/14 10:23:38;;;;;;;10.57;5.87;;;;;;;5.81;77.27;94423.69;5013543;28;20175;-74
2020/12/14 10:26:05;;;;;;;8.83;5.97;;;;;;;5.90;76.09;94423.63;5013522;28;20614;-73
2020/12/14 10:28:31;;;;;;;11.83;6.27;;;;;;;5.94;77.20;94425.28;5013474;28;20192;-74
2020/12/14 10:30:57;;;;;;;14.30;7.03;;;;;;;5.81;77.61;94435.06;5013492;28;21329;-73
2020/12/14 10:33:22;;;;;;;12.73;7.23;;;;;;;5.69;77.74;94421.00;5013190;28;20169;-73
2020/12/14 10:35:48;;;;;;;9.53;5.97;;;;;;;5.79;76.91;94418.72;5013582;28;20217;-73
2020/12/14 10:38:14;;;;;;;9.50;6.43;;;;;;;6.00;77.04;94436.47;5013355;28;20655;-73
2020/12/14 10:40:39;;;;;;;9.07;6.33;;;;;;;5.55;75.81;94434.47;5013265;28;20243;-73
2020/12/14 10:43:05;;;;;;;9.87;6.57;;;;;;;5.49;76.59;94431.25;5012132;28;20636;-72
2020/12/14 10:45:30;;;;;;;10.77;6.43;;;;;;;5.53;76.74;94428.75;5013198;28;20687;-72
2020/12/14 10:47:56;;;;;;;9.40;6.77;;;;;;;5.67;76.81;94423.97;5013302;28;20557;-72
2020/12/14 10:50:24;;;;;;;13.57;7.00;;;;;;;5.47;76.45;94427.38;5013040;28;20173;-72
2020/12/14 10:52:50;;;;;;;10.67;6.70;;;;;;;5.53;76.36;94418.16;5012156;28;20177;-73
2020/12/14 10:55:17;;;;;;;11.43;7.33;;;;;;;5.70;77.02;94417.22;5012818;28;20591;-72
2020/12/14 10:57:43;;;;;;;11.57;7.40;;;;;;;5.58;76.18;94423.25;5013136;28;20188;-73
2020/12/14 11:00:10;;;;;;;13.63;7.10;;;;;;;5.67;76.26;94417.88;5012832;28;20638;-72
2020/12/14 11:02:36;;;;;;;12.43;8.07;;;;;;;5.59;76.24;94422.16;5013045;28;20272;-72
2020/12/14 11:05:11;;;;;;;14.77;7.83;;;;;;;5.51;76.48;94423.78;5012599;28;20658;-73
2020/12/14 11:07:37;;;;;;;12.77;8.63;;;;;;;5.38;77.60;94419.50;5012858;28;20645;-71
2020/12/14 11:10:04;;;;;;;14.20;8.70;;;;;;;5.51;77.75;94423.78;5012345;28;20997;-73
2020/12/14 11:12:29;;;;;;;11.47;7.10;;;;;;;5.35;76.09;94420.16;5012767;28;20185;-73
2020/12/14 11:14:55;;;;;;;11.40;7.30;;;;;;;5.29;76.29;94429.38;5012706;28;20583;-71
2020/12/14 11:17:20;;;;;;;13.97;7.80;;;;;;;5.34;76.64;94429.19;5012581;28;20211;-73
2020/12/14 11:19:46;;;;;;;11.27;7.67;;;;;;;5.13;76.17;94423.13;5012536;28;20662;-72
2020/12/14 11:22:12;;;;;;;13.13;8.00;;;;;;;5.25;77.16;94423.19;5012325;28;20184;-73
2020/12/14 11:24:37;;;;;;;11.63;7.23;;;;;;;5.44;76.00;94430.66;5012671;28;20200;-75
2020/12/14 11:27:03;;;;;;;12.10;7.60;;;;;;;5.38;76.28;94419.50;5010622;28;21238;-77
2020/12/14 11:29:29;;;;;;;13.17;8.43;;;;;;;5.37;76.60;94433.84;4992928;28;20166;-78
2020/12/14 11:31:55;;;;;;;13.40;7.97;;;;;;;5.29;76.53;94427.50;4993062;28;20194;-78
2020/12/14 11:34:20;;;;;;;12.00;7.47;;;;;;;5.31;77.01;94427.19;4992975;28;21085;-72